Terminal Aerodrome Forecast
Issued by NWS

Current Version | Previous Version | Text Only | Print | Product List | Glossary On
Versions: 1 2 3 4 5 6 7 8 9 10 11 12 13
162
FTUS45 KMSO 041139
TAFSMN
TAF
KSMN 041139Z 0412/0512 VRB03KT P6SM VCSH OVC050
     FM042000 22007KT 2SM -SN BKN020 OVC030
     FM050200 35015G25KT P6SM VCSH SCT030 BKN060
     FM050600 36011KT P6SM BKN100
      AMD LTD TO CLD VIS AND WIND=

USA.gov is the U.S. government's official web portal to all federal, state and local government web resources and services.